createdAt,value
2018-11-11T15:13:04.321Z,41.33
2018-11-11T15:15:32.805Z,37.48
2018-11-11T15:18:01.862Z,36.05
2018-11-11T15:20:30.679Z,47.70
2018-11-11T15:22:59.240Z,65.37
2018-11-11T15:25:28.978Z,48.17
2018-11-11T15:27:57.548Z,39.18
2018-11-11T15:30:34.762Z,36.08
2018-11-11T15:33:03.948Z,35.90
2018-11-11T15:35:32.666Z,34.27
2018-11-11T15:38:01.335Z,36.15
2018-11-11T15:40:31.338Z,33.67
2018-11-11T15:43:00.294Z,32.50
2018-11-11T15:45:30.255Z,33.50
2018-11-11T15:47:59.197Z,32.63
2018-11-11T15:50:29.039Z,33.90
2018-11-11T15:53:02.052Z,35.00
2018-11-11T15:55:31.947Z,33.88
2018-11-11T15:58:00.484Z,32.65
2018-11-11T16:00:31.619Z,34.20
2018-11-11T16:03:00.420Z,34.73
2018-11-11T16:05:29.129Z,34.65
2018-11-11T16:07:59.169Z,35.28
2018-11-11T16:10:30.078Z,35.30
2018-11-11T16:12:59.204Z,36.80
2018-11-11T16:15:29.226Z,37.13
2018-11-11T16:17:59.288Z,37.67
2018-11-11T16:20:29.688Z,37.73
2018-11-11T16:22:59.365Z,35.40
2018-11-11T16:25:30.344Z,33.88
2018-11-11T16:28:01.762Z,35.25
2018-11-11T16:30:33.003Z,35.33
2018-11-11T16:33:03.829Z,36.73
2018-11-11T16:35:33.222Z,35.45
2018-11-11T16:38:02.727Z,35.92
2018-11-11T16:40:33.703Z,35.75
2018-11-11T16:43:03.457Z,37.05
2018-11-11T16:48:27.888Z,16.15
2018-11-11T16:52:38.991Z,15.85
2018-11-11T16:55:09.783Z,16.02
2018-11-11T16:57:39.436Z,15.90
2018-11-11T17:00:10.263Z,15.65
2018-11-11T17:02:40.363Z,16.02
2018-11-11T17:05:11.073Z,15.38
2018-11-11T17:07:39.881Z,15.75
2018-11-11T17:10:11.371Z,15.90
2018-11-11T17:12:41.747Z,15.72
2018-11-11T17:15:11.723Z,16.40
2018-11-11T17:17:40.493Z,15.30
2018-11-11T17:20:10.243Z,15.80
2018-11-11T17:22:39.008Z,15.63
2018-11-11T17:25:08.876Z,15.32
2018-11-11T17:27:38.871Z,14.75
2018-11-11T17:30:09.327Z,15.00
2018-11-11T17:32:38.191Z,14.85
2018-11-11T17:35:08.572Z,15.63
2018-11-11T17:37:37.821Z,15.63
2018-11-11T17:40:08.399Z,14.87
2018-11-11T17:42:37.632Z,14.93
2018-11-11T17:45:07.010Z,15.40
2018-11-11T17:47:36.918Z,15.32
2018-11-11T17:50:07.585Z,14.83
2018-11-11T17:52:36.600Z,15.50
2018-11-11T17:55:05.757Z,15.43
2018-11-11T17:57:35.146Z,15.00
2018-11-11T18:00:04.790Z,15.18
2018-11-11T18:02:33.940Z,14.90
2018-11-11T18:05:03.617Z,14.65
2018-11-11T18:07:32.877Z,15.50
2018-11-11T18:10:02.347Z,15.30
2018-11-11T18:12:31.413Z,14.85
2018-11-11T18:15:00.928Z,14.60
2018-11-11T18:17:29.924Z,15.48
2018-11-11T18:19:58.815Z,14.53
2018-11-11T18:22:29.278Z,14.38
2018-11-11T18:24:58.206Z,15.03
2018-11-11T18:27:27.269Z,15.35
2018-11-11T18:29:57.228Z,15.00
2018-11-11T18:32:26.212Z,15.32
2018-11-11T18:34:56.347Z,14.83
2018-11-11T18:37:26.846Z,14.53
2018-11-11T18:39:56.337Z,14.80
2018-11-11T18:42:26.253Z,14.75
2018-11-11T18:44:55.423Z,14.65
2018-11-11T18:47:29.878Z,15.03
2018-11-11T18:50:00.145Z,14.75
2018-11-11T18:52:30.093Z,14.18
2018-11-11T18:55:00.192Z,14.80
2018-11-11T18:57:30.465Z,14.70
2018-11-11T19:00:00.820Z,14.65
2018-11-11T19:02:30.097Z,13.90
2018-11-11T19:04:59.306Z,14.85
2018-11-11T19:07:29.128Z,14.38
2018-11-11T19:09:59.794Z,14.13
2018-11-11T19:12:29.065Z,14.68
2018-11-11T19:14:59.256Z,13.98
2018-11-11T19:17:28.531Z,14.85
2018-11-11T19:19:58.567Z,14.35
2018-11-11T19:22:28.171Z,13.85
2018-11-11T19:24:57.623Z,14.13
2018-11-11T19:27:28.333Z,14.38
2018-11-11T19:29:58.631Z,14.70
2018-11-11T19:32:28.160Z,13.78
2018-11-11T19:34:57.089Z,14.68
2018-11-11T19:37:27.540Z,13.95
2018-11-11T19:39:56.850Z,13.53
2018-11-11T19:42:25.695Z,13.93
2018-11-11T19:44:54.840Z,14.43
2018-11-11T19:47:24.847Z,14.05
2018-11-11T19:49:54.216Z,14.15
2018-11-11T19:52:24.369Z,13.83
2018-11-11T19:54:53.636Z,13.70
2018-11-11T19:57:22.644Z,14.15
2018-11-11T19:59:51.339Z,13.60
2018-11-11T20:02:20.564Z,14.07
2018-11-11T20:04:50.017Z,13.98
2018-11-11T20:07:20.484Z,13.85
2018-11-11T20:09:49.674Z,13.75
2018-11-11T20:12:20.577Z,13.18
2018-11-11T20:14:49.363Z,13.83
2018-11-11T20:17:19.526Z,13.78
2018-11-11T20:19:48.365Z,13.90
2018-11-11T20:22:17.202Z,13.10
2018-11-11T20:24:46.182Z,13.43
2018-11-11T20:27:15.776Z,13.62
2018-11-11T20:29:44.767Z,13.25
2018-11-11T20:32:13.942Z,13.35
2018-11-11T20:34:43.259Z,13.85
2018-11-11T20:37:11.974Z,13.00
2018-11-11T20:39:40.576Z,13.20
2018-11-11T20:42:09.221Z,14.60
2018-11-11T20:44:37.972Z,13.68
2018-11-11T20:47:08.056Z,13.50
2018-11-11T20:49:37.122Z,13.68
2018-11-11T20:52:06.940Z,13.45
2018-11-11T20:54:36.050Z,13.15
2018-11-11T20:57:04.785Z,14.53
2018-11-11T20:59:34.594Z,13.32
2018-11-11T21:02:03.336Z,12.93
2018-11-11T21:04:32.042Z,13.70
2018-11-11T21:07:00.702Z,13.53
2018-11-11T21:09:30.341Z,14.07
2018-11-11T21:11:58.933Z,13.58
2018-11-11T21:14:29.092Z,13.13
2018-11-11T21:16:58.298Z,13.32
2018-11-11T21:19:27.021Z,14.18
2018-11-11T21:21:56.404Z,13.50
2018-11-11T21:24:25.035Z,13.00
2018-11-11T21:26:55.390Z,13.20
2018-11-11T21:29:25.397Z,13.43
2018-11-11T21:31:54.464Z,13.13
2018-11-11T21:34:24.177Z,13.40
2018-11-11T21:36:53.665Z,13.18
2018-11-11T21:39:23.186Z,13.20
2018-11-11T21:41:52.588Z,13.72
2018-11-11T21:44:22.821Z,13.18
2018-11-11T21:46:51.372Z,13.00
2018-11-11T21:49:19.939Z,14.03
2018-11-11T21:51:49.792Z,13.60
2018-11-11T21:54:19.873Z,13.30
2018-11-11T21:56:48.610Z,12.55
2018-11-11T21:59:17.734Z,13.70
2018-11-11T22:01:47.282Z,12.90
2018-11-11T22:04:16.595Z,12.70
2018-11-11T22:06:46.268Z,13.62
2018-11-11T22:09:14.845Z,12.50
2018-11-11T22:11:44.554Z,13.08
2018-11-11T22:14:13.248Z,13.43
2018-11-11T22:16:43.199Z,13.55
2018-11-11T22:19:13.082Z,14.40
2018-11-11T22:21:43.183Z,13.75
2018-11-11T22:24:12.838Z,15.90
2018-11-11T22:26:41.494Z,18.27
2018-11-11T22:29:10.102Z,16.60
2018-11-11T22:31:38.854Z,17.10
2018-11-11T22:34:07.367Z,17.00
2018-11-11T22:36:36.071Z,17.92
2018-11-11T22:39:06.991Z,17.90
2018-11-11T22:41:35.941Z,18.25
2018-11-11T22:44:04.546Z,17.92
2018-11-11T22:46:33.157Z,17.32
2018-11-11T22:49:01.877Z,17.27
2018-11-11T22:51:30.917Z,18.42
2018-11-11T22:53:59.500Z,17.77
2018-11-11T22:56:28.188Z,17.25
2018-11-11T22:58:57.446Z,18.85
2018-11-11T23:01:27.102Z,17.62
2018-11-11T23:03:56.556Z,18.60
2018-11-11T23:06:26.319Z,17.55
2018-11-11T23:08:56.069Z,17.77
2018-11-11T23:11:25.892Z,16.87
2018-11-11T23:13:55.285Z,18.15
2018-11-11T23:16:24.468Z,18.57
2018-11-11T23:18:54.126Z,18.12
2018-11-11T23:21:22.761Z,18.02
2018-11-11T23:23:52.739Z,18.02
2018-11-11T23:26:21.669Z,16.50
2018-11-11T23:28:50.981Z,17.10
2018-11-11T23:31:20.425Z,15.65
2018-11-11T23:33:50.705Z,16.23
2018-11-11T23:36:19.307Z,16.00
2018-11-11T23:38:48.421Z,14.87
2018-11-11T23:41:17.183Z,14.47
2018-11-11T23:43:45.674Z,15.20
2018-11-11T23:46:14.277Z,14.28
2018-11-11T23:48:42.727Z,13.88
2018-11-11T23:51:12.780Z,13.43
2018-11-11T23:53:42.649Z,15.18
2018-11-11T23:56:11.145Z,13.53
2018-11-11T23:58:39.900Z,15.30
